Time;durP1;ratioP1;P1;durP2;ratioP2;P2;SDS_P1;SDS_P2;PMS_P1;PMS_P2;Temp;Humidity;BMP_temperature;BMP_pressure;BME280_temperature;BME280_humidity;BME280_pressure;Samples;Min_cycle;Max_cycle;Signal;HPM_P1;HPM_P2
2022/11/16 00:01:04;;;;;;;68.23;43.87;;;;;;;10.01;72.67;94354.19;5121354;28;20253;-85
2022/11/16 00:03:31;;;;;;;72.43;43.90;;;;;;;10.18;72.75;94386.66;5127085;28;20197;-84
2022/11/16 00:05:59;;;;;;;66.97;43.43;;;;;;;10.12;72.59;94361.69;5122851;28;20613;-83
2022/11/16 00:08:26;;;;;;;69.77;44.13;;;;;;;10.22;72.79;94371.84;5121696;28;20189;-84
2022/11/16 00:10:53;;;;;;;70.10;44.13;;;;;;;10.24;72.66;94372.53;5121688;28;20197;-83
2022/11/16 00:13:25;;;;;;;70.23;41.80;;;;;;;10.24;72.68;94375.91;5122244;28;20193;-84
2022/11/16 00:15:56;;;;;;;62.40;40.73;;;;;;;10.27;72.49;94373.03;5114947;28;20223;-84
2022/11/16 00:18:24;;;;;;;68.60;41.13;;;;;;;10.30;72.51;94364.28;5113098;28;20242;-85
2022/11/16 00:20:51;;;;;;;68.60;40.33;;;;;;;10.27;72.62;94359.47;5113310;28;20686;-85
2022/11/16 00:23:18;;;;;;;60.97;40.03;;;;;;;10.35;72.50;94377.44;5113205;28;20192;-82
2022/11/16 00:25:45;;;;;;;63.77;41.20;;;;;;;10.36;72.58;94366.25;5112675;28;20304;-81
2022/11/16 00:28:12;;;;;;;60.07;39.17;;;;;;;10.39;72.55;94365.97;5113160;28;20197;-82
2022/11/16 00:30:39;;;;;;;63.80;42.20;;;;;;;10.38;72.68;94364.38;5113143;28;20189;-84
2022/11/16 00:33:07;;;;;;;61.50;39.60;;;;;;;10.39;72.42;94365.97;5114333;28;20189;-82
2022/11/16 00:35:39;;;;;;;59.57;39.20;;;;;;;10.40;72.57;94365.03;5114009;28;20209;-84
2022/11/16 00:38:06;;;;;;;66.40;38.77;;;;;;;10.41;72.75;94365.84;5113467;28;20193;-85
2022/11/16 00:40:33;;;;;;;63.10;39.27;;;;;;;10.41;72.60;94365.84;5112373;28;20192;-86
2022/11/16 00:43:00;;;;;;;66.80;40.23;;;;;;;10.12;72.58;94310.59;5113277;28;20185;-86
2022/11/16 00:45:28;;;;;;;67.10;41.87;;;;;;;10.41;72.82;94363.31;5114763;28;20285;-83
2022/11/16 00:47:54;;;;;;;59.93;38.93;;;;;;;10.40;72.89;94359.91;5114133;28;20177;-86
2022/11/16 00:50:21;;;;;;;56.80;39.63;;;;;;;10.40;72.95;94357.38;5113155;28;20181;-84
2022/11/16 00:52:49;;;;;;;66.17;40.90;;;;;;;10.39;72.93;94355.75;5126642;28;20200;-83
2022/11/16 00:55:16;;;;;;;62.37;39.40;;;;;;;10.40;72.74;94354.00;5120998;28;20228;-85
2022/11/16 00:57:43;;;;;;;64.30;40.07;;;;;;;10.39;72.81;94352.41;5113058;28;20196;-85
2022/11/16 01:00:13;;;;;;;62.90;40.00;;;;;;;10.31;72.63;94330.13;5112609;28;20188;-84
2022/11/16 01:02:40;;;;;;;62.80;39.37;;;;;;;10.39;73.00;94337.88;5111710;28;20189;-86
2022/11/16 01:05:09;;;;;;;61.83;39.50;;;;;;;10.35;72.80;94338.31;5112238;28;20555;-85
2022/11/16 01:07:36;;;;;;;65.13;39.73;;;;;;;10.37;72.79;94327.00;5112103;28;20208;-83
2022/11/16 01:10:07;;;;;;;60.10;39.53;;;;;;;10.36;72.79;94322.81;5112429;28;20197;-86
2022/11/16 01:12:34;;;;;;;68.67;41.63;;;;;;;10.34;72.88;94324.72;5111524;28;20196;-84
2022/11/16 01:15:01;;;;;;;63.03;39.03;;;;;;;10.27;73.00;94300.69;5111851;28;20220;-85
2022/11/16 01:17:28;;;;;;;64.37;42.00;;;;;;;10.33;72.83;94319.78;5111437;28;20191;-85
2022/11/16 01:19:55;;;;;;;63.57;41.40;;;;;;;10.29;73.04;94319.25;5112053;28;20192;-88
2022/11/16 01:22:22;;;;;;;66.27;40.97;;;;;;;10.27;73.04;94306.59;5114921;28;20177;-83
2022/11/16 01:24:48;;;;;;;62.00;40.53;;;;;;;10.01;72.83;94270.69;5118266;28;20210;-85
2022/11/16 01:27:17;;;;;;;64.77;42.10;;;;;;;10.02;72.92;94284.31;5117251;28;20177;-83
2022/11/16 01:29:44;;;;;;;64.97;40.80;;;;;;;10.23;73.02;94322.34;5114460;28;20196;-82
2022/11/16 01:32:11;;;;;;;67.67;42.47;;;;;;;10.19;73.11;94319.28;5116431;28;20192;-84
2022/11/16 01:34:38;;;;;;;64.50;40.07;;;;;;;10.14;72.91;94307.88;5115216;28;20181;-83
2022/11/16 01:37:04;;;;;;;65.83;42.03;;;;;;;10.17;73.02;94320.38;5111740;28;20219;-84
2022/11/16 01:39:31;;;;;;;68.03;42.53;;;;;;;10.16;73.02;94316.22;5111308;28;20189;-82
2022/11/16 01:41:58;;;;;;;74.83;43.73;;;;;;;10.09;73.00;94312.63;5111387;28;20211;-87
2022/11/16 01:45:06;;;;;;;72.67;46.90;;;;;;;10.13;72.96;94317.28;5111771;28;20208;-84
2022/11/16 01:47:33;;;;;;;71.53;45.67;;;;;;;10.11;73.06;94311.53;5109206;28;20203;-87
2022/11/16 01:50:05;;;;;;;78.07;46.70;;;;;;;10.07;73.05;94305.09;5102354;28;20204;-85
2022/11/16 01:52:35;;;;;;;75.40;46.83;;;;;;;10.09;72.96;94317.72;5110401;28;20189;-82
2022/11/16 01:55:02;;;;;;;83.03;49.87;;;;;;;10.12;73.06;94309.78;5111005;28;20189;-82
2022/11/16 01:57:32;;;;;;;81.03;49.77;;;;;;;10.08;72.84;94303.34;5110281;28;20189;-83
2022/11/16 02:00:02;;;;;;;79.87;50.63;;;;;;;10.13;72.91;94303.72;5110415;28;20644;-82
2022/11/16 02:02:30;;;;;;;88.17;53.53;;;;;;;10.12;72.74;94300.38;5110633;28;20177;-83
2022/11/16 02:04:58;;;;;;;83.70;52.57;;;;;;;10.08;72.77;94288.81;5111037;28;20199;-82
2022/11/16 02:09:52;;;;;;;83.23;53.63;;;;;;;10.14;72.77;94295.09;5110454;28;20683;-82
2022/11/16 02:10:39;;;;;;;89.73;56.43;;;;;;;10.07;72.75;94271.09;5110616;28;20185;-81
2022/11/16 02:13:19;;;;;;;90.60;56.37;;;;;;;9.99;72.67;94259.84;5110852;28;20203;-82
2022/11/16 02:15:51;;;;;;;88.53;55.03;;;;;;;10.11;72.75;94275.78;5110192;28;20710;-83
2022/11/16 02:18:30;;;;;;;94.03;57.43;;;;;;;10.11;73.04;94275.78;5110708;28;20189;-82
2022/11/16 02:21:27;;;;;;;95.93;57.27;;;;;;;10.09;72.85;94272.53;5112926;28;20640;-82
2022/11/16 02:24:17;;;;;;;94.23;59.13;;;;;;;10.10;72.83;94276.69;5114169;28;20185;-83
2022/11/16 02:27:12;;;;;;;91.33;56.50;;;;;;;10.09;72.61;94279.41;5114379;28;20193;-82
2022/11/16 02:29:45;;;;;;;94.20;58.37;;;;;;;9.94;72.73;94259.47;5111739;28;20193;-82
2022/11/16 02:32:15;;;;;;;99.90;61.17;;;;;;;10.05;72.61;94279.69;5110991;28;20570;-82
2022/11/16 02:34:47;;;;;;;100.97;58.93;;;;;;;9.98;72.69;94270.22;5110806;28;20672;-82
2022/11/16 02:37:19;;;;;;;103.37;61.70;;;;;;;10.02;72.65;94277.44;5111490;28;20293;-82
2022/11/16 02:39:48;;;;;;;93.93;59.20;;;;;;;10.00;72.77;94270.84;5111672;28;20211;-82
2022/11/16 02:42:22;;;;;;;98.67;61.97;;;;;;;9.89;72.65;94261.66;5111111;28;20195;-84
2022/11/16 02:44:52;;;;;;;101.43;60.10;;;;;;;9.79;72.74;94251.50;5111091;28;20188;-82
2022/11/16 02:47:23;;;;;;;102.00;61.10;;;;;;;9.90;72.60;94265.03;5117003;28;20189;-83
2022/11/16 02:49:55;;;;;;;103.07;62.43;;;;;;;9.92;72.49;94268.22;5129052;28;20185;-83
2022/11/16 02:52:23;;;;;;;104.07;62.77;;;;;;;9.90;72.59;94277.78;5119862;28;20216;-83
2022/11/16 02:54:50;;;;;;;100.43;61.90;;;;;;;9.89;72.42;94276.19;5116436;28;20200;-83
2022/11/16 02:57:29;;;;;;;99.00;60.27;;;;;;;9.82;72.57;94260.63;5117011;28;20310;-82
2022/11/16 02:59:58;;;;;;;98.77;61.87;;;;;;;9.84;72.50;94268.94;5113423;27;20192;-83
2022/11/16 03:05:30;;;;;;;100.77;61.23;;;;;;;9.37;72.67;94195.06;5114169;28;20227;-82
2022/11/16 03:08:05;;;;;;;100.53;59.43;;;;;;;9.78;72.65;94256.75;5114372;28;20184;-82
2022/11/16 03:13:23;;;;;;;98.63;61.03;;;;;;;9.73;72.29;94246.97;5116717;28;20234;-84
2022/11/16 03:15:54;;;;;;;89.30;57.17;;;;;;;9.72;72.38;94244.56;5116303;28;20217;-83
2022/11/16 03:18:24;;;;;;;106.93;61.97;;;;;;;9.69;72.38;94244.84;5114590;28;20193;-83
2022/11/16 03:20:57;;;;;;;94.50;56.87;;;;;;;9.68;72.34;94249.16;5114497;28;20197;-83
2022/11/16 03:23:24;;;;;;;98.80;58.17;;;;;;;9.60;72.31;94238.03;5114560;28;20194;-83
2022/11/16 03:25:52;;;;;;;92.47;58.10;;;;;;;9.56;72.25;94237.53;5115532;28;20193;-83
2022/11/16 03:28:24;;;;;;;90.60;56.27;;;;;;;9.48;72.27;94227.22;5114813;28;20267;-82
2022/11/16 03:30:59;;;;;;;79.33;54.03;;;;;;;9.43;72.28;94216.66;5114897;28;20265;-81
2022/11/16 03:33:32;;;;;;;82.03;51.97;;;;;;;9.59;72.04;94239.00;5115972;28;20732;-81
2022/11/16 03:36:05;;;;;;;82.33;52.23;;;;;;;9.38;72.20;94214.53;5136004;28;20216;-80
2022/11/16 03:38:34;;;;;;;82.17;52.67;;;;;;;9.53;72.14;94241.16;5135093;28;20189;-82
2022/11/16 03:41:05;;;;;;;82.23;52.20;;;;;;;9.53;72.13;94237.81;5134447;28;20272;-82
2022/11/16 03:43:35;;;;;;;76.97;50.10;;;;;;;9.36;71.99;94229.16;5129404;28;20197;-84
2022/11/16 03:46:03;;;;;;;78.80;47.77;;;;;;;9.50;71.99;94250.88;5113260;28;20333;-82
2022/11/16 03:48:35;;;;;;;79.67;48.33;;;;;;;9.50;71.92;94245.75;5114156;28;20199;-83
2022/11/16 03:51:02;;;;;;;77.77;48.07;;;;;;;9.50;71.97;94249.13;5114342;28;20294;-82
2022/11/16 03:53:29;;;;;;;77.93;49.37;;;;;;;9.46;71.99;94235.03;5114685;28;20205;-82
2022/11/16 03:55:56;;;;;;;84.10;49.40;;;;;;;9.50;71.92;94244.00;5113054;28;20232;-82
2022/11/16 03:58:23;;;;;;;72.47;46.20;;;;;;;9.50;72.14;94251.66;5113018;28;20188;-82
2022/11/16 04:00:49;;;;;;;70.80;46.10;;;;;;;9.50;72.08;94244.00;5112883;28;20185;-82
2022/11/16 04:03:18;;;;;;;74.90;46.60;;;;;;;9.50;71.92;94231.25;5113012;28;20185;-82
2022/11/16 04:25:22;;;;;;;66.63;43.10;;;;;;;9.50;72.12;94205.72;5112926;28;20208;-83
2022/11/16 04:38:44;;;;;;;74.27;44.33;;;;;;;9.54;71.82;94201.13;5112180;28;20176;-83
2022/11/16 04:42:13;;;;;;;70.43;41.97;;;;;;;9.45;71.89;94186.66;5112537;28;20181;-84
2022/11/16 04:43:59;;;;;;;76.13;43.70;;;;;;;9.47;72.08;94195.78;5123255;28;20192;-83
2022/11/16 04:49:10;;;;;;;70.57;42.17;;;;;;;9.43;71.76;94186.03;5095751;28;20683;-82
2022/11/16 04:51:38;;;;;;;70.43;41.77;;;;;;;9.45;72.02;94187.47;5112175;28;20544;-83
2022/11/16 04:54:05;;;;;;;66.77;41.57;;;;;;;9.49;72.09;94196.44;5113176;28;20224;-83
2022/11/16 04:56:32;;;;;;;64.17;40.40;;;;;;;9.59;71.80;94205.81;5112845;28;20228;-83
2022/11/16 04:58:58;;;;;;;62.73;40.00;;;;;;;9.50;71.68;94187.06;5112541;28;20532;-84
2022/11/16 05:04:08;;;;;;;63.83;40.97;;;;;;;9.63;72.02;94202.84;5110380;28;20181;-83
2022/11/16 05:06:35;;;;;;;64.37;41.00;;;;;;;9.52;71.72;94182.59;5111508;28;20185;-83
2022/11/16 05:09:03;;;;;;;69.60;42.53;;;;;;;9.46;71.83;94171.22;5110066;28;20185;-83
2022/11/16 05:11:30;;;;;;;65.07;43.53;;;;;;;9.60;71.73;94182.69;5111568;28;20185;-83
2022/11/16 05:14:02;;;;;;;67.83;42.10;;;;;;;9.13;71.79;94105.50;5111511;28;20675;-84
2022/11/16 05:16:29;;;;;;;72.53;42.77;;;;;;;9.63;71.92;94176.47;5111212;28;20226;-84
2022/11/16 05:21:47;;;;;;;73.63;43.23;;;;;;;9.73;71.71;94192.56;5113109;28;20215;-86
2022/11/16 05:24:35;;;;;;;70.43;42.80;;;;;;;9.70;71.59;94180.06;5112359;28;20200;-85
2022/11/16 05:27:03;;;;;;;64.90;42.07;;;;;;;9.77;71.66;94191.31;5112719;28;20227;-85
2022/11/16 05:29:29;;;;;;;69.17;41.77;;;;;;;9.78;71.63;94190.38;5112777;28;20193;-82
2022/11/16 05:31:56;;;;;;;68.07;41.70;;;;;;;9.80;71.60;94194.38;5112235;28;20238;-84
2022/11/16 05:34:23;;;;;;;63.93;42.33;;;;;;;9.83;71.44;94195.03;5111583;28;20177;-83
2022/11/16 05:36:50;;;;;;;65.90;41.63;;;;;;;9.45;71.37;94135.63;5111726;28;20701;-85
2022/11/16 05:39:19;;;;;;;69.83;42.50;;;;;;;9.57;71.54;94141.31;5112219;28;20195;-84
2022/11/16 05:41:46;;;;;;;65.20;42.40;;;;;;;9.91;71.54;94192.56;5112018;28;20199;-82
2022/11/16 05:44:13;;;;;;;71.10;42.77;;;;;;;9.93;71.49;94190.66;5110792;28;20185;-88
2022/11/16 05:46:40;;;;;;;68.80;42.70;;;;;;;9.93;71.29;94186.38;5111911;28;20232;-87
2022/11/16 05:49:07;;;;;;;76.47;44.47;;;;;;;9.76;71.18;94157.31;5111797;28;20197;-83
2022/11/16 05:51:35;;;;;;;75.03;43.20;;;;;;;10.01;71.37;94194.06;5111159;28;20193;-87
2022/11/16 05:54:02;;;;;;;74.90;43.70;;;;;;;10.05;71.48;94194.59;5111364;28;20803;-82
2022/11/16 05:56:31;;;;;;;74.70;45.13;;;;;;;10.07;71.23;94187.59;5111675;28;20221;-86
2022/11/16 05:58:58;;;;;;;74.60;44.43;;;;;;;9.74;71.31;94133.66;5111443;28;20664;-85
2022/11/16 06:01:26;;;;;;;76.17;44.53;;;;;;;10.14;71.28;94185.25;5112044;28;20189;-83
2022/11/16 06:03:53;;;;;;;75.60;45.40;;;;;;;10.17;71.33;94197.72;5111211;28;20567;-82
2022/11/16 06:06:21;;;;;;;77.20;46.10;;;;;;;10.20;71.20;94195.69;5111472;28;20575;-81
2022/11/16 06:08:49;;;;;;;69.97;45.10;;;;;;;10.23;71.08;94195.41;5092611;28;20185;-90
2022/11/16 06:11:16;;;;;;;79.47;47.43;;;;;;;10.05;71.34;94161.38;5096503;28;20213;-87
2022/11/16 06:13:44;;;;;;;82.97;48.87;;;;;;;10.28;71.21;94198.34;5108867;28;20199;-84
2022/11/16 06:16:11;;;;;;;83.30;49.70;;;;;;;10.31;71.18;94204.88;5113178;28;20637;-85
2022/11/16 06:18:39;;;;;;;86.30;49.23;;;;;;;10.22;71.15;94181.00;5120344;28;20659;-82
2022/11/16 06:21:09;;;;;;;90.77;50.90;;;;;;;10.37;71.44;94206.06;5124307;28;20216;-86
2022/11/16 06:23:37;;;;;;;96.53;52.33;;;;;;;10.39;71.07;94179.41;5122315;28;20197;-81
2022/11/16 06:26:04;;;;;;;88.33;50.23;;;;;;;10.15;70.88;94149.34;5118582;28;20195;-86
2022/11/16 06:28:32;;;;;;;84.57;49.70;;;;;;;10.39;70.96;94181.94;5118670;28;20189;-87
2022/11/16 06:31:00;;;;;;;86.50;48.80;;;;;;;10.21;70.87;94150.50;5120656;28;20196;-84
2022/11/16 06:33:27;;;;;;;96.13;52.93;;;;;;;10.51;70.83;94188.44;5099377;28;20260;-85
2022/11/16 06:35:56;;;;;;;85.00;50.33;;;;;;;10.55;70.88;94196.59;5107871;28;20584;-89
2022/11/16 06:38:23;;;;;;;85.33;48.70;;;;;;;10.50;70.89;94179.16;5104072;28;20235;-88
2022/11/16 06:40:51;;;;;;;77.87;47.70;;;;;;;10.63;70.81;94193.31;5111376;28;20196;-89
2022/11/16 06:43:19;;;;;;;77.73;46.57;;;;;;;10.66;70.88;94186.13;5124577;28;20211;-86
2022/11/16 06:45:48;;;;;;;81.63;48.17;;;;;;;10.70;70.94;94196.84;5114209;28;20227;-85
2022/11/16 06:48:17;;;;;;;77.43;47.37;;;;;;;10.74;71.03;94185.38;5110376;28;20191;-87
2022/11/16 06:50:44;;;;;;;80.77;46.13;;;;;;;10.72;71.01;94182.97;5103633;28;20189;-85
2022/11/16 06:53:11;;;;;;;77.23;45.47;;;;;;;10.71;70.87;94163.47;5107475;28;20189;-85
2022/11/16 06:55:38;;;;;;;75.13;44.13;;;;;;;10.77;70.62;94172.28;5107840;28;20666;-87
2022/11/16 06:58:05;;;;;;;74.03;44.60;;;;;;;10.82;70.66;94174.38;5107860;28;20571;-86
2022/11/16 07:00:32;;;;;;;72.17;45.27;;;;;;;10.94;70.53;94183.41;5102374;28;20201;-88
2022/11/16 07:02:59;;;;;;;72.67;44.77;;;;;;;10.97;70.57;94183.91;5111562;28;20195;-85
2022/11/16 07:05:27;;;;;;;72.10;43.47;;;;;;;10.97;70.38;94176.25;5107043;28;20193;-85
2022/11/16 07:07:54;;;;;;;70.50;43.73;;;;;;;11.07;70.47;94188.13;5103482;28;20288;-84
2022/11/16 07:10:22;;;;;;;75.97;44.63;;;;;;;11.11;70.49;94184.28;5108507;28;20659;-85
2022/11/16 07:12:49;;;;;;;75.03;44.43;;;;;;;10.99;70.35;94158.97;5091974;28;20203;-86
2022/11/16 07:15:16;;;;;;;81.90;43.77;;;;;;;11.17;70.39;94176.00;5108426;28;20204;-84
2022/11/16 07:17:42;;;;;;;73.07;44.53;;;;;;;10.79;70.33;94114.09;5101986;28;20271;-87
2022/11/16 07:20:11;;;;;;;76.60;43.70;;;;;;;11.27;70.32;94187.72;5101463;28;20203;-86
2022/11/16 07:22:40;;;;;;;68.37;42.30;;;;;;;11.32;70.20;94187.25;5105673;28;20283;-85
2022/11/16 07:25:08;;;;;;;60.67;40.03;;;;;;;11.37;70.32;94182.47;5099538;28;20189;-85
2022/11/16 07:27:35;;;;;;;61.43;39.27;;;;;;;11.28;70.22;94150.94;5108488;28;20588;-85
2022/11/16 07:30:02;;;;;;;68.90;41.90;;;;;;;11.49;70.16;94177.88;5104792;28;20664;-85
2022/11/16 07:32:29;;;;;;;70.93;39.90;;;;;;;11.49;70.15;94171.00;5105705;28;20204;-85
2022/11/16 07:34:56;;;;;;;67.33;39.30;;;;;;;11.61;69.90;94175.81;5103459;28;20196;-87
2022/11/16 07:37:23;;;;;;;61.47;38.30;;;;;;;11.66;69.86;94174.41;5099201;28;20232;-84
2022/11/16 07:39:51;;;;;;;35.67;23.57;;;;;;;11.92;100.00;94124.84;5101266;28;20189;-83
2022/11/16 07:42:18;;;;;;;46.83;28.00;;;;;;;12.92;100.00;94172.31;5098044;28;20972;-85
2022/11/16 07:44:45;;;;;;;50.23;29.03;;;;;;;13.36;100.00;94164.16;5110306;28;20189;-87
2022/11/16 07:47:12;;;;;;;43.23;27.27;;;;;;;13.23;100.00;94115.91;5097779;28;20194;-86
2022/11/16 07:49:39;;;;;;;47.43;28.17;;;;;;;13.59;100.00;94159.03;5121045;28;20256;-86
2022/11/16 07:52:08;;;;;;;48.23;28.60;;;;;;;13.65;96.41;94165.31;5107096;28;20189;-88
2022/11/16 07:54:35;;;;;;;52.37;28.67;;;;;;;13.63;93.60;94160.31;5103819;28;20255;-85
2022/11/16 07:57:04;;;;;;;52.70;29.83;;;;;;;13.51;90.56;94141.09;5100504;28;20696;-85
2022/11/16 07:59:31;;;;;;;52.73;31.07;;;;;;;13.46;88.48;94139.03;5101780;28;20201;-88
2022/11/16 08:01:58;;;;;;;50.73;29.77;;;;;;;13.49;86.69;94136.16;5108927;28;20207;-87
2022/11/16 08:04:25;;;;;;;49.07;30.27;;;;;;;13.61;84.96;94159.69;5108678;28;20275;-83
2022/11/16 08:06:53;;;;;;;51.37;31.33;;;;;;;13.44;83.71;94127.34;5109047;28;20208;-90
2022/11/16 08:09:20;;;;;;;50.90;32.63;;;;;;;13.58;83.00;94152.31;5126501;28;20203;-89
2022/11/16 08:11:47;;;;;;;55.83;33.27;;;;;;;13.51;82.15;94139.38;5099154;28;20276;-88
2022/11/16 08:14:18;;;;;;;51.80;31.43;;;;;;;13.40;81.59;94116.63;5123694;28;20203;-84
2022/11/16 08:16:54;;;;;;;64.70;34.20;;;;;;;13.15;80.69;94079.16;5120970;28;20201;-89
2022/11/16 08:19:21;;;;;;;56.27;32.67;;;;;;;13.50;80.35;94127.47;5105941;28;20223;-86
2022/11/16 08:21:48;;;;;;;56.90;33.00;;;;;;;13.59;80.04;94135.13;5105736;28;20196;-87
2022/11/16 08:24:16;;;;;;;53.70;32.00;;;;;;;13.59;79.41;94130.00;5120364;28;20214;-87
2022/11/16 08:26:43;;;;;;;60.13;33.43;;;;;;;13.60;78.90;94129.84;5114913;28;20188;-87
2022/11/16 08:29:13;;;;;;;57.27;33.50;;;;;;;13.64;78.36;94140.56;5105544;28;20228;-91
2022/11/16 08:31:44;;;;;;;62.87;34.87;;;;;;;13.67;77.74;94133.31;5111428;28;20204;-87
2022/11/16 08:34:12;;;;;;;56.70;33.57;;;;;;;13.70;77.38;94132.19;5114467;28;20204;-90
2022/11/16 08:36:41;;;;;;;60.13;34.30;;;;;;;13.36;76.55;94071.69;5085754;28;20197;-89
2022/11/16 08:39:09;;;;;;;64.47;33.80;;;;;;;13.69;76.00;94115.19;5109336;28;20207;-89
2022/11/16 08:41:37;;;;;;;58.13;34.30;;;;;;;13.77;75.63;94121.06;5111665;28;20201;-87
2022/11/16 08:44:04;;;;;;;65.63;36.23;;;;;;;13.79;75.38;94119.09;5103717;28;20200;-86
2022/11/16 08:46:31;;;;;;;63.70;36.00;;;;;;;13.92;74.73;94128.03;5108831;28;20228;-87
2022/11/16 08:48:59;;;;;;;56.70;33.50;;;;;;;13.97;74.24;94129.09;5100979;28;20204;-89
2022/11/16 08:51:27;;;;;;;61.50;34.17;;;;;;;14.02;73.95;94126.78;5103788;28;20205;-88
2022/11/16 08:53:58;;;;;;;58.23;34.77;;;;;;;13.95;73.83;94105.34;5108171;28;20204;-88
2022/11/16 08:56:26;;;;;;;65.10;34.40;;;;;;;13.70;73.29;94058.47;5097887;28;20254;-86
2022/11/16 08:58:54;;;;;;;57.67;33.33;;;;;;;14.16;73.11;94116.72;5099879;28;20227;-85
2022/11/16 09:01:23;;;;;;;57.70;33.77;;;;;;;14.18;72.91;94118.16;5103810;28;20201;-88
2022/11/16 09:03:51;;;;;;;70.63;36.47;;;;;;;14.19;72.65;94109.47;5109976;28;20185;-85
2022/11/16 09:06:25;;;;;;;66.50;35.53;;;;;;;14.42;72.05;94118.91;5113729;28;20205;-87
2022/11/16 09:08:52;;;;;;;59.47;33.47;;;;;;;14.48;71.82;94113.09;5100980;28;20194;-88
2022/11/16 09:11:20;;;;;;;60.07;34.47;;;;;;;14.63;71.54;94113.13;5109703;28;20203;-84
2022/11/16 09:13:49;;;;;;;58.60;34.37;;;;;;;14.72;71.33;94106.91;5093751;28;20192;-89
2022/11/16 09:16:16;;;;;;;65.47;35.57;;;;;;;14.77;71.25;94095.13;5110305;28;20194;-86
2022/11/16 09:18:45;;;;;;;60.10;34.13;;;;;;;14.88;70.86;94101.59;5111554;28;20209;-83
2022/11/16 09:21:12;;;;;;;65.77;35.40;;;;;;;14.96;70.69;94098.13;5111246;28;20185;-86
2022/11/16 09:23:41;;;;;;;61.60;34.63;;;;;;;15.04;70.51;94085.16;5125466;28;20200;-89
2022/11/16 09:26:07;;;;;;;56.17;33.40;;;;;;;15.13;70.07;94080.69;5110057;28;20283;-84
2022/11/16 09:28:34;;;;;;;57.97;33.40;;;;;;;15.31;69.82;94081.09;5103783;28;20200;-86
2022/11/16 09:31:04;;;;;;;60.50;33.17;;;;;;;15.44;69.55;94075.28;5108480;28;20936;-84
2022/11/16 09:33:32;;;;;;;59.43;34.03;;;;;;;15.51;69.20;94066.66;5095820;28;20193;-87
2022/11/16 09:36:05;;;;;;;57.57;32.77;;;;;;;15.53;69.08;94049.22;5100668;28;20192;-85
2022/11/16 09:38:32;;;;;;;53.87;33.13;;;;;;;15.66;68.89;94050.34;5097221;28;20217;-84
2022/11/16 09:41:10;;;;;;;57.30;32.50;;;;;;;15.54;68.60;94011.34;5102632;28;20200;-86
2022/11/16 09:43:46;;;;;;;49.43;30.07;;;;;;;15.46;68.39;93996.03;5100016;28;20212;-85
2022/11/16 09:46:24;;;;;;;54.53;29.53;;;;;;;15.76;68.54;94043.91;5108608;28;20252;-86
2022/11/16 09:48:51;;;;;;;54.00;30.60;;;;;;;15.79;68.35;94047.88;5106179;28;20205;-86
2022/11/16 09:51:22;;;;;;;53.07;30.57;;;;;;;15.86;68.10;94037.66;5108575;28;20194;-87
2022/11/16 09:53:55;;;;;;;53.87;30.23;;;;;;;15.93;67.98;94038.47;5105773;28;20200;-87
2022/11/16 09:56:27;;;;;;;49.87;28.40;;;;;;;15.98;67.62;94024.06;5112008;28;20197;-89
2022/11/16 09:58:59;;;;;;;53.73;29.73;;;;;;;16.06;67.39;94028.25;5113656;28;20215;-87
2022/11/16 10:01:28;;;;;;;53.27;28.77;;;;;;;16.11;67.23;94022.56;5104976;28;20197;-86
2022/11/16 10:04:06;;;;;;;50.03;30.00;;;;;;;16.05;66.64;93999.09;5121193;28;20191;-88
2022/11/16 10:06:48;;;;;;;49.40;28.43;;;;;;;15.99;66.55;93970.69;5111996;28;20840;-89
2022/11/16 10:09:23;;;;;;;48.13;29.50;;;;;;;16.29;66.50;94003.03;5101854;28;20208;-94
2022/11/16 10:12:21;;;;;;;49.67;28.60;;;;;;;16.36;66.10;93994.53;5100890;28;20201;-86
2022/11/16 10:15:15;;;;;;;46.40;28.87;;;;;;;16.35;66.06;93977.44;5028283;28;20207;-85
2022/11/16 10:18:05;;;;;;;48.20;28.50;;;;;;;16.04;65.69;93917.56;5026544;28;20207;-85
2022/11/16 10:20:57;;;;;;;48.40;30.20;;;;;;;16.61;65.54;93984.53;5024741;28;20202;-88
2022/11/16 10:23:37;;;;;;;46.33;29.93;;;;;;;16.65;65.35;93983.94;5030597;28;20223;-90
2022/11/16 10:26:18;;;;;;;47.87;29.20;;;;;;;16.67;65.11;93974.25;5028561;28;20211;-86
2022/11/16 10:29:03;;;;;;;45.77;28.97;;;;;;;16.71;64.78;93956.56;5025821;28;20677;-83
2022/11/16 10:31:47;;;;;;;42.53;28.00;;;;;;;16.79;64.74;93962.38;5024763;28;20191;-83
2022/11/16 10:34:20;;;;;;;44.27;27.70;;;;;;;16.83;64.63;93962.78;5023011;28;20684;-85
2022/11/16 10:36:47;;;;;;;48.03;28.10;;;;;;;16.66;64.35;93928.75;5024680;28;20196;-83
2022/11/16 10:39:18;;;;;;;46.03;27.53;;;;;;;16.85;64.35;93949.72;5031919;28;20223;-87
2022/11/16 10:41:48;;;;;;;45.33;26.33;;;;;;;16.92;64.31;93966.78;5041856;28;20191;-84
2022/11/16 10:44:22;;;;;;;42.97;26.93;;;;;;;16.95;64.15;93955.28;5039377;28;20198;-86
2022/11/16 10:46:58;;;;;;;43.07;25.33;;;;;;;16.92;64.00;93940.97;5032797;28;20214;-83
2022/11/16 10:49:32;;;;;;;39.03;24.93;;;;;;;17.01;63.77;93954.50;5028161;28;20195;-83
2022/11/16 10:51:59;;;;;;;44.43;26.20;;;;;;;17.00;63.93;93943.38;5079616;28;20208;-84
2022/11/16 10:54:26;;;;;;;39.50;25.80;;;;;;;17.07;63.76;93942.59;5105138;28;20204;-81
2022/11/16 10:57:02;;;;;;;41.00;25.47;;;;;;;17.08;63.56;93932.06;5107768;28;20185;-84
2022/11/16 10:59:41;;;;;;;38.23;24.67;;;;;;;17.10;63.55;93927.50;5100180;28;20235;-85
2022/11/16 11:02:30;;;;;;;38.33;24.93;;;;;;;17.08;63.33;93929.47;5113236;28;20203;-84
2022/11/16 11:05:19;;;;;;;38.33;25.10;;;;;;;17.04;63.41;93921.31;5105969;28;20305;-85
2022/11/16 11:07:50;;;;;;;37.23;25.07;;;;;;;17.08;63.40;93902.84;5103416;28;20193;-85
2022/11/16 11:10:28;;;;;;;34.00;23.87;;;;;;;17.15;63.33;93906.25;5103256;28;20209;-88
2022/11/16 11:13:05;;;;;;;42.03;24.83;;;;;;;17.19;63.05;93902.28;5104628;28;20340;-88
2022/11/16 11:15:34;;;;;;;38.90;25.67;;;;;;;17.26;63.37;93893.53;5099319;28;20204;-91
2022/11/16 11:18:17;;;;;;;36.03;24.17;;;;;;;17.32;62.93;93886.78;5099343;28;20221;-85
2022/11/16 11:20:47;;;;;;;35.57;23.77;;;;;;;17.14;62.71;93840.88;5105627;28;20194;-85
2022/11/16 11:23:17;;;;;;;39.83;23.43;;;;;;;17.32;62.65;93849.81;5105496;28;20193;-86
2022/11/16 11:25:56;;;;;;;37.80;23.03;;;;;;;17.36;62.60;93849.22;5105418;28;20192;-86
2022/11/16 11:28:27;;;;;;;34.17;22.87;;;;;;;17.64;62.49;93885.16;5110671;28;20185;-88
2022/11/16 11:30:59;;;;;;;33.93;23.40;;;;;;;17.65;62.11;93881.59;5108858;28;20193;-86
2022/11/16 11:33:30;;;;;;;32.53;22.97;;;;;;;17.56;62.46;93862.91;5099501;28;20197;-83
2022/11/16 11:36:04;;;;;;;30.20;21.90;;;;;;;17.61;62.49;93864.88;5107785;28;20576;-85
2022/11/16 11:38:32;;;;;;;36.67;23.03;;;;;;;17.68;62.72;93868.25;5106086;28;20220;-86
2022/11/16 11:41:00;;;;;;;31.40;21.73;;;;;;;17.47;62.56;93827.91;5096788;28;20185;-81
2022/11/16 11:43:29;;;;;;;34.17;23.17;;;;;;;17.68;62.67;93855.31;5108170;28;20223;-86
2022/11/16 11:46:05;;;;;;;29.93;20.93;;;;;;;17.59;62.73;93848.00;5100664;28;20233;-86
2022/11/16 11:48:43;;;;;;;31.23;20.00;;;;;;;17.64;62.82;93856.72;5105323;28;20197;-84
2022/11/16 11:51:15;;;;;;;40.03;22.37;;;;;;;17.25;62.86;93798.13;5123448;28;20195;-83
2022/11/16 11:53:55;;;;;;;32.47;21.50;;;;;;;17.56;62.94;93846.59;5117366;28;20206;-85
2022/11/16 11:56:22;;;;;;;30.77;22.33;;;;;;;17.52;63.17;93837.66;5100521;28;20190;-81
2022/11/16 11:58:50;;;;;;;26.97;21.00;;;;;;;17.48;63.04;93839.84;5099916;28;20221;-85
2022/11/16 12:01:49;;;;;;;32.60;21.73;;;;;;;17.46;63.24;93828.91;5097893;28;20197;-86
2022/11/16 12:04:59;;;;;;;30.60;21.17;;;;;;;17.45;63.09;93832.50;5104232;28;20201;-84
2022/11/16 12:07:40;;;;;;;35.67;22.47;;;;;;;17.43;63.02;93833.69;5100809;28;20277;-82
2022/11/16 12:10:16;;;;;;;29.23;21.10;;;;;;;17.35;63.22;93820.97;5100552;28;20671;-83
2022/11/16 12:12:54;;;;;;;29.57;19.77;;;;;;;17.30;63.49;93826.75;5100929;28;20197;-84
2022/11/16 12:15:34;;;;;;;29.37;21.07;;;;;;;16.97;63.46;93783.66;5101252;28;20203;-81
2022/11/16 12:18:23;;;;;;;29.47;20.93;;;;;;;17.16;63.41;93813.03;5106785;28;20204;-86
2022/11/16 12:20:58;;;;;;;28.10;20.93;;;;;;;17.09;63.54;93801.91;5101641;28;20655;-83